Time;durP1;ratioP1;P1;durP2;ratioP2;P2;SDS_P1;SDS_P2;PMS_P1;PMS_P2;Temp;Humidity;BMP_temperature;BMP_pressure;BME280_temperature;BME280_humidity;BME280_pressure;Samples;Min_cycle;Max_cycle;Signal;HPM_P1;HPM_P2
2022/05/25 00:02:21;;;;;;;1.92;1.65;;;15.90;99.90;;;;;;4996934;28;20022;-79
2022/05/25 00:04:47;;;;;;;3.53;1.30;;;15.90;99.90;;;;;;5000711;28;20018;-82
2022/05/25 00:07:16;;;;;;;1.55;1.25;;;16.00;99.90;;;;;;5002802;28;20740;-79
2022/05/25 00:09:46;;;;;;;2.80;1.23;;;16.00;99.90;;;;;;5001049;28;20619;-78
2022/05/25 00:12:17;;;;;;;1.20;1.10;;;16.00;99.90;;;;;;5000119;28;20021;-80
2022/05/25 00:14:45;;;;;;;1.67;1.13;;;16.00;99.90;;;;;;5000817;28;20021;-78
2022/05/25 00:17:16;;;;;;;1.35;1.25;;;16.00;99.90;;;;;;4996854;28;20048;-79
2022/05/25 00:20:01;;;;;;;1.33;1.23;;;16.00;99.90;;;;;;4996856;28;20037;-80
2022/05/25 00:22:42;;;;;;;1.95;1.40;;;16.00;99.90;;;;;;4997775;28;20523;-79
2022/05/25 00:25:29;;;;;;;1.60;1.30;;;16.00;99.90;;;;;;4994491;28;20026;-79
2022/05/25 00:27:58;;;;;;;1.63;1.13;;;16.00;99.90;;;;;;4993908;28;20041;-80
2022/05/25 00:30:30;;;;;;;1.50;1.35;;;16.00;99.90;;;;;;5000566;28;20048;-79
2022/05/25 00:32:57;;;;;;;1.25;1.15;;;16.00;99.90;;;;;;4994511;28;20018;-79
2022/05/25 00:35:27;;;;;;;3.22;1.30;;;16.00;99.90;;;;;;4999780;28;20026;-79
2022/05/25 00:38:03;;;;;;;1.35;1.00;;;16.00;99.90;;;;;;4992059;28;20022;-79
2022/05/25 00:40:42;;;;;;;1.37;1.27;;;15.90;99.90;;;;;;4999179;28;20064;-79
2022/05/25 00:43:14;;;;;;;0.90;0.90;;;15.80;99.90;;;;;;4995710;28;20053;-79
2022/05/25 00:45:49;;;;;;;1.40;1.30;;;15.90;99.90;;;;;;4997561;28;20053;-79
2022/05/25 00:48:26;;;;;;;2.00;1.50;;;15.90;99.90;;;;;;4998424;28;20049;-79
2022/05/25 00:51:13;;;;;;;1.17;1.15;;;15.90;99.90;;;;;;4995911;28;20029;-80
2022/05/25 00:53:42;;;;;;;1.58;1.40;;;15.90;99.90;;;;;;4998244;28;20026;-79
2022/05/25 00:56:15;;;;;;;1.20;1.10;;;15.90;99.90;;;;;;4992336;28;20025;-78
2022/05/25 00:58:59;;;;;;;2.20;1.50;;;15.80;99.90;;;;;;4998518;28;20022;-78
2022/05/25 01:01:27;;;;;;;1.75;1.25;;;15.90;99.90;;;;;;4996700;28;20478;-80
2022/05/25 01:04:04;;;;;;;2.30;1.15;;;16.00;99.90;;;;;;4994453;28;20026;-80
2022/05/25 01:06:36;;;;;;;;;;;16.00;99.90;;;;;;4997981;28;20045;-79
2022/05/25 01:09:39;;;;;;;1.65;1.48;;;15.90;99.90;;;;;;4992259;28;19909;-79
2022/05/25 01:12:24;;;;;;;0.95;0.95;;;15.90;99.90;;;;;;4993156;28;20053;-79
2022/05/25 01:15:06;;;;;;;1.33;1.23;;;15.90;99.90;;;;;;4992855;28;20041;-80
2022/05/25 01:17:34;;;;;;;3.10;1.42;;;15.90;99.90;;;;;;4997456;28;20033;-80
2022/05/25 01:20:35;;;;;;;1.20;1.10;;;15.90;99.90;;;;;;4992453;28;20036;-79
2022/05/25 01:23:23;;;;;;;0.82;0.82;;;15.90;99.90;;;;;;4991145;28;20096;-78
2022/05/25 01:26:19;;;;;;;0.90;0.90;;;15.90;99.90;;;;;;4990232;28;20022;-79
2022/05/25 01:29:00;;;;;;;2.30;0.90;;;15.90;99.90;;;;;;4998150;28;20045;-80
2022/05/25 01:31:49;;;;;;;0.75;0.75;;;15.90;99.90;;;;;;4995629;28;20022;-79
2022/05/25 01:34:47;;;;;;;1.10;1.00;;;15.90;99.90;;;;;;4997873;28;20033;-79
2022/05/25 01:37:37;;;;;;;0.75;0.75;;;15.80;99.90;;;;;;4994433;28;20039;-79
2022/05/25 01:40:25;;;;;;;1.17;1.10;;;15.80;99.90;;;;;;4992124;28;20121;-79
2022/05/25 01:43:04;;;;;;;0.98;0.82;;;15.80;99.90;;;;;;4989332;28;20044;-79
2022/05/25 01:45:36;;;;;;;1.80;1.00;;;15.80;99.90;;;;;;4996112;28;20034;-79
2022/05/25 01:48:06;;;;;;;0.93;0.85;;;15.90;99.90;;;;;;4991288;28;20053;-80
2022/05/25 01:51:03;;;;;;;0.80;0.80;;;15.80;99.90;;;;;;4996155;28;20045;-79
2022/05/25 01:53:35;;;;;;;0.88;0.88;;;15.80;99.90;;;;;;4996391;28;20455;-80
2022/05/25 01:56:07;;;;;;;0.75;0.75;;;15.80;99.90;;;;;;4991174;28;20761;-79
2022/05/25 01:58:38;;;;;;;1.30;1.17;;;15.70;99.90;;;;;;4995738;28;20092;-79
2022/05/25 02:01:06;;;;;;;1.30;1.10;;;15.60;99.90;;;;;;4991471;28;20045;-79
2022/05/25 02:06:33;;;;;;;1.20;0.93;;;15.70;99.90;;;;;;4994738;28;20121;-79
2022/05/25 02:09:37;;;;;;;2.13;1.30;;;15.70;99.90;;;;;;4990298;28;20032;-80
2022/05/25 02:12:22;;;;;;;1.10;1.10;;;15.70;99.90;;;;;;4991278;28;20026;-79
2022/05/25 02:14:58;;;;;;;1.85;0.95;;;15.70;99.90;;;;;;4993576;28;20050;-80
2022/05/25 02:17:53;;;;;;;0.90;0.90;;;15.70;99.90;;;;;;4996248;28;20028;-79
2022/05/25 02:20:28;;;;;;;1.75;1.10;;;15.60;99.90;;;;;;4996989;28;20029;-80
2022/05/25 02:23:01;;;;;;;1.02;0.85;;;15.70;99.90;;;;;;4993036;28;20022;-79
2022/05/25 02:25:40;;;;;;;0.70;0.70;;;15.60;99.90;;;;;;4995368;28;20047;-80
2022/05/25 02:28:14;;;;;;;1.50;0.90;;;15.60;99.90;;;;;;4992310;28;20883;-80
2022/05/25 02:30:47;;;;;;;0.70;0.70;;;15.60;99.90;;;;;;4996100;28;20030;-79
2022/05/25 02:33:23;;;;;;;0.93;0.73;;;15.60;99.90;;;;;;4992369;28;20018;-80
2022/05/25 02:35:51;;;;;;;0.73;0.70;;;15.60;99.90;;;;;;4989991;28;20022;-79
2022/05/25 02:38:19;;;;;;;0.80;0.60;;;15.50;99.90;;;;;;5001147;28;20029;-79
2022/05/25 02:41:07;;;;;;;0.77;0.77;;;15.50;99.90;;;;;;4998401;28;20033;-79
2022/05/25 02:43:43;;;;;;;1.10;1.00;;;15.50;99.90;;;;;;4996990;28;20033;-79
2022/05/25 02:46:11;;;;;;;1.45;0.95;;;15.50;99.90;;;;;;4993016;28;20037;-80
2022/05/25 02:48:39;;;;;;;0.63;0.63;;;15.50;99.90;;;;;;4998202;28;20112;-80
2022/05/25 02:51:07;;;;;;;1.65;0.80;;;15.50;99.90;;;;;;4994354;28;20038;-79
2022/05/25 02:53:39;;;;;;;1.50;1.02;;;15.50;99.90;;;;;;4999683;28;20026;-79
2022/05/25 02:56:06;;;;;;;0.95;0.95;;;15.50;99.90;;;;;;4992952;28;20030;-80
2022/05/25 02:58:38;;;;;;;1.00;1.00;;;15.50;99.90;;;;;;4995791;28;20049;-79
2022/05/25 03:01:05;;;;;;;1.20;0.90;;;15.40;99.90;;;;;;4991339;28;20026;-80
2022/05/25 03:03:37;;;;;;;1.23;1.15;;;15.40;99.90;;;;;;4998689;28;20034;-79
2022/05/25 03:06:05;;;;;;;1.27;1.17;;;15.40;99.90;;;;;;4993783;28;20026;-80
2022/05/25 03:08:31;;;;;;;1.48;1.02;;;15.30;99.90;;;;;;5001493;28;20153;-80
2022/05/25 03:10:58;;;;;;;1.00;0.90;;;15.30;99.90;;;;;;4995277;28;20026;-79
2022/05/25 03:13:24;;;;;;;1.25;0.90;;;15.30;99.90;;;;;;5000023;28;20021;-79
2022/05/25 03:15:49;;;;;;;1.20;1.00;;;15.30;99.90;;;;;;4994605;28;20083;-79
2022/05/25 03:18:15;;;;;;;1.25;1.10;;;15.30;99.90;;;;;;4999134;28;20559;-79
2022/05/25 03:20:42;;;;;;;2.35;1.00;;;15.30;99.90;;;;;;5000459;28;20038;-79
2022/05/25 03:23:20;;;;;;;1.35;0.70;;;15.30;99.90;;;;;;4994811;28;20036;-79
2022/05/25 03:25:48;;;;;;;2.65;1.00;;;15.20;99.90;;;;;;4999379;28;20032;-79
2022/05/25 03:28:16;;;;;;;1.85;0.90;;;15.30;99.90;;;;;;4998286;28;20033;-79
2022/05/25 03:30:45;;;;;;;1.10;0.73;;;15.30;99.90;;;;;;4999563;28;20470;-79
2022/05/25 03:33:15;;;;;;;1.15;0.70;;;15.30;99.90;;;;;;4994563;28;20120;-80
2022/05/25 03:35:44;;;;;;;0.98;0.77;;;15.30;99.90;;;;;;4998498;28;20030;-79
2022/05/25 03:38:14;;;;;;;1.10;0.82;;;15.30;99.90;;;;;;4994307;28;20044;-79
2022/05/25 03:40:40;;;;;;;0.60;0.60;;;15.30;99.90;;;;;;5000079;28;20084;-80
2022/05/25 03:43:17;;;;;;;2.20;0.45;;;15.30;99.90;;;;;;4994691;28;20187;-80
2022/05/25 03:45:44;;;;;;;0.50;0.45;;;15.30;99.90;;;;;;4999156;28;20022;-79
2022/05/25 03:48:10;;;;;;;0.60;0.60;;;15.30;99.90;;;;;;4994834;28;20033;-79
2022/05/25 03:50:49;;;;;;;0.68;0.40;;;15.20;99.90;;;;;;5000503;28;20042;-79
2022/05/25 03:53:19;;;;;;;0.30;0.30;;;15.40;99.90;;;;;;4997534;28;20045;-80
2022/05/25 03:55:47;;;;;;;0.73;0.60;;;15.40;99.90;;;;;;4999065;28;20034;-80
2022/05/25 03:58:20;;;;;;;1.85;0.70;;;15.40;99.90;;;;;;4995388;28;20021;-79
2022/05/25 04:00:48;;;;;;;1.02;0.40;;;15.40;99.90;;;;;;4997616;28;20514;-79
2022/05/25 04:03:17;;;;;;;1.85;0.50;;;15.40;99.90;;;;;;4996595;28;20026;-80
2022/05/25 04:05:44;;;;;;;0.40;0.40;;;15.40;99.90;;;;;;4997014;28;20065;-79
2022/05/25 04:08:11;;;;;;;0.30;0.30;;;15.40;99.90;;;;;;4993961;28;20335;-80
2022/05/25 04:10:37;;;;;;;1.30;0.45;;;15.50;99.90;;;;;;4997253;28;20024;-79
2022/05/25 04:13:03;;;;;;;0.30;0.30;;;15.70;99.90;;;;;;4992958;28;20034;-79
2022/05/25 04:15:32;;;;;;;0.30;0.30;;;15.80;99.90;;;;;;4996680;28;20075;-79
2022/05/25 04:17:59;;;;;;;0.75;0.25;;;15.80;99.90;;;;;;4992164;28;20112;-78
2022/05/25 04:20:28;;;;;;;1.48;0.52;;;15.90;99.90;;;;;;4997881;28;20014;-79
2022/05/25 04:22:58;;;;;;;0.68;0.40;;;15.90;99.90;;;;;;4992864;28;20030;-78
2022/05/25 04:25:25;;;;;;;1.15;0.80;;;15.80;99.90;;;;;;4997915;28;20627;-78
2022/05/25 04:27:52;;;;;;;1.10;0.50;;;15.70;99.90;;;;;;4994150;28;20414;-78
2022/05/25 04:30:24;;;;;;;0.50;0.50;;;15.70;99.90;;;;;;4998612;28;20026;-78
2022/05/25 04:32:51;;;;;;;0.50;0.50;;;15.70;99.90;;;;;;4996311;28;20467;-77
2022/05/25 04:35:17;;;;;;;0.47;0.47;;;15.60;99.90;;;;;;4996642;28;20022;-78
2022/05/25 04:37:49;;;;;;;0.90;0.73;;;15.60;99.90;;;;;;4995075;28;20026;-78
2022/05/25 04:40:19;;;;;;;1.27;0.55;;;15.60;99.90;;;;;;4993292;28;20018;-80
2022/05/25 04:42:47;;;;;;;0.52;0.52;;;15.60;99.90;;;;;;4998555;28;20101;-79
2022/05/25 04:45:15;;;;;;;0.38;0.38;;;15.60;99.90;;;;;;4994388;28;20455;-78
2022/05/25 04:47:42;;;;;;;0.60;0.30;;;15.70;99.90;;;;;;4998056;28;20026;-78
2022/05/25 04:50:10;;;;;;;0.40;0.40;;;15.70;99.90;;;;;;4992074;28;20125;-79
2022/05/25 04:52:37;;;;;;;0.40;0.40;;;15.70;99.90;;;;;;4996868;28;21564;-79
2022/05/25 04:55:06;;;;;;;1.23;0.60;;;15.70;99.90;;;;;;4992936;28;21540;-78
2022/05/25 04:57:33;;;;;;;0.73;0.52;;;15.70;99.90;;;;;;4996032;28;20076;-79
2022/05/25 05:00:02;;;;;;;0.43;0.43;;;15.70;99.90;;;;;;4992304;28;20375;-78
2022/05/25 05:16:04;;;;;;;1.25;1.08;;;15.50;99.90;;;;;;4993872;28;20025;-78
2022/05/25 05:18:30;;;;;;;1.70;0.90;;;15.50;99.90;;;;;;4996309;28;20022;-72
2022/05/25 05:20:56;;;;;;;2.83;1.00;;;15.50;99.90;;;;;;4989824;28;20071;-73
2022/05/25 05:23:21;;;;;;;0.73;0.73;;;15.60;99.90;;;;;;4995178;28;20480;-73
2022/05/25 05:25:49;;;;;;;2.93;1.20;;;15.80;99.90;;;;;;4993268;28;20033;-73
2022/05/25 05:28:18;;;;;;;1.05;0.95;;;15.80;99.90;;;;;;4991181;28;21276;-73
2022/05/25 05:30:55;;;;;;;1.08;1.00;;;15.90;99.90;;;;;;4996328;28;20014;-77
2022/05/25 05:33:26;;;;;;;1.88;1.48;;;15.90;99.90;;;;;;4996591;28;20014;-77
2022/05/25 05:35:57;;;;;;;2.05;1.10;;;15.90;99.90;;;;;;4993759;28;20775;-77
2022/05/25 05:38:25;;;;;;;1.90;1.10;;;16.00;99.90;;;;;;4997487;28;20026;-77
2022/05/25 05:40:58;;;;;;;1.92;1.15;;;16.10;99.90;;;;;;4998380;28;20026;-78
2022/05/25 05:43:29;;;;;;;1.08;1.00;;;16.10;99.90;;;;;;4996340;28;20029;-77
2022/05/25 05:45:56;;;;;;;0.93;0.93;;;16.10;99.90;;;;;;4993723;28;20071;-78
2022/05/25 05:48:30;;;;;;;0.82;0.82;;;16.10;99.90;;;;;;4995405;28;20026;-77
2022/05/25 05:50:56;;;;;;;1.10;0.82;;;16.10;99.90;;;;;;4994119;28;20101;-78
2022/05/25 05:53:27;;;;;;;0.90;0.90;;;16.00;99.90;;;;;;4995541;28;20018;-77
2022/05/25 05:55:54;;;;;;;2.10;1.05;;;15.90;99.90;;;;;;4997675;28;20041;-76
2022/05/25 05:58:20;;;;;;;3.00;1.33;;;16.00;99.90;;;;;;4996157;28;20530;-77
2022/05/25 06:00:48;;;;;;;1.65;1.40;;;15.90;99.90;;;;;;5000511;28;20092;-78
2022/05/25 06:03:29;;;;;;;2.45;1.40;;;16.00;99.90;;;;;;4993587;28;20033;-77
2022/05/25 06:06:04;;;;;;;2.20;1.00;;;16.10;99.90;;;;;;4992874;28;20024;-78
2022/05/25 06:08:30;;;;;;;4.63;1.38;;;16.20;99.90;;;;;;4996114;28;20038;-78
2022/05/25 06:14:21;;;;;;;2.90;1.73;;;16.20;99.90;;;;;;4994939;28;20025;-77
2022/05/25 06:19:37;;;;;;;1.58;1.48;;;16.20;99.90;;;;;;4997559;28;20104;-78
2022/05/25 06:22:08;;;;;;;1.15;1.05;;;16.30;99.90;;;;;;4991863;28;20033;-79
2022/05/25 06:24:40;;;;;;;1.55;1.33;;;16.30;99.90;;;;;;4994082;28;20080;-77
2022/05/25 06:27:11;;;;;;;3.78;1.70;;;16.40;99.90;;;;;;4989756;28;20429;-79
2022/05/25 06:29:42;;;;;;;2.35;1.38;;;16.40;99.90;;;;;;4995071;28;20065;-77
2022/05/25 06:32:10;;;;;;;1.55;1.40;;;16.50;99.90;;;;;;4989990;28;20026;-77
2022/05/25 06:34:41;;;;;;;2.13;1.50;;;16.50;99.90;;;;;;4995284;28;20033;-78
2022/05/25 06:37:22;;;;;;;1.38;1.23;;;16.60;99.90;;;;;;4990844;28;20044;-78
2022/05/25 06:39:50;;;;;;;1.95;1.50;;;16.60;99.90;;;;;;4994622;28;20041;-79
2022/05/25 06:42:20;;;;;;;1.60;1.50;;;16.60;99.90;;;;;;4991019;28;20044;-78
2022/05/25 06:44:50;;;;;;;1.52;1.33;;;16.70;99.90;;;;;;4997136;28;20531;-78
2022/05/25 06:47:18;;;;;;;1.08;0.98;;;16.80;99.90;;;;;;4989708;28;20034;-78
2022/05/25 06:49:45;;;;;;;1.83;1.25;;;16.80;99.90;;;;;;4995817;28;20046;-78
2022/05/25 06:52:13;;;;;;;1.30;1.20;;;16.90;99.90;;;;;;4991451;28;20033;-79
2022/05/25 06:54:41;;;;;;;1.92;1.38;;;17.00;99.90;;;;;;4995391;28;20045;-78
2022/05/25 06:57:11;;;;;;;1.20;1.10;;;17.00;99.90;;;;;;4989503;28;20057;-78
2022/05/25 06:59:38;;;;;;;1.40;1.30;;;17.10;99.90;;;;;;4996027;28;20026;-78
2022/05/25 07:02:05;;;;;;;1.40;1.30;;;17.20;99.90;;;;;;4991671;28;20030;-79
2022/05/25 07:04:31;;;;;;;1.90;1.42;;;17.30;99.90;;;;;;4995901;28;20671;-78
2022/05/25 07:07:01;;;;;;;5.47;1.35;;;17.40;99.90;;;;;;4994016;28;20038;-79
2022/05/25 07:09:39;;;;;;;1.40;1.30;;;17.50;99.90;;;;;;4996153;28;20033;-81
2022/05/25 07:12:06;;;;;;;1.60;1.48;;;17.60;99.90;;;;;;4991281;28;20122;-79
2022/05/25 07:14:45;;;;;;;1.50;1.40;;;17.60;99.90;;;;;;4995720;28;20025;-79
2022/05/25 07:17:13;;;;;;;2.08;1.30;;;17.50;99.90;;;;;;4989623;28;20042;-79
2022/05/25 07:19:48;;;;;;;1.58;1.35;;;17.40;99.90;;;;;;4995656;28;20787;-78
2022/05/25 07:22:15;;;;;;;2.45;1.50;;;17.50;99.90;;;;;;4991202;28;20486;-78
2022/05/25 07:24:45;;;;;;;1.23;1.13;;;17.60;99.90;;;;;;4995956;28;20036;-80
2022/05/25 07:27:12;;;;;;;1.73;1.30;;;17.60;99.90;;;;;;4992432;28;20064;-78
2022/05/25 07:29:45;;;;;;;1.15;1.00;;;17.60;99.90;;;;;;4990192;28;20026;-79
2022/05/25 07:32:13;;;;;;;5.13;1.48;;;17.60;99.90;;;;;;4994634;28;20018;-79
2022/05/25 07:34:46;;;;;;;1.45;1.35;;;17.70;99.90;;;;;;4990180;28;20010;-79
2022/05/25 07:37:21;;;;;;;2.15;1.35;;;17.80;99.90;;;;;;4991192;28;20123;-79
2022/05/25 07:40:12;;;;;;;1.10;1.10;;;17.90;99.90;;;;;;4986557;28;20540;-79
2022/05/25 07:42:40;;;;;;;2.00;1.30;;;17.90;99.90;;;;;;4993564;28;20029;-79
2022/05/25 07:45:07;;;;;;;8.88;2.00;;;17.90;99.90;;;;;;4999825;28;20145;-79
2022/05/25 07:47:36;;;;;;;10.68;1.65;;;17.90;99.90;;;;;;4995770;28;20044;-78
2022/05/25 07:50:04;;;;;;;1.10;1.00;;;17.90;99.90;;;;;;4997425;28;20876;-78
2022/05/25 07:52:35;;;;;;;1.58;1.10;;;17.90;99.90;;;;;;4999156;28;20053;-79
2022/05/25 07:55:03;;;;;;;4.20;1.20;;;18.00;99.90;;;;;;4999677;28;20065;-79
2022/05/25 07:57:31;;;;;;;1.20;1.10;;;18.10;99.90;;;;;;4999790;28;20045;-79
2022/05/25 07:59:58;;;;;;;2.40;1.10;;;18.20;99.90;;;;;;4997091;28;20017;-79
2022/05/25 08:08:24;;;;;;;5.38;1.10;;;18.50;99.90;;;;;;4999807;28;20037;-79
2022/05/25 08:11:07;;;;;;;3.35;0.73;;;18.50;99.90;;;;;;4993681;28;20022;-79
2022/05/25 08:13:40;;;;;;;1.85;0.90;;;18.50;99.90;;;;;;4996083;28;20493;-79
2022/05/25 08:49:56;;;;;;;0.77;0.77;;;22.60;99.90;;;;;;5001544;28;20057;-75
2022/05/25 08:52:28;;;;;;;0.70;0.70;;;22.50;99.90;;;;;;4991797;28;20124;-75
2022/05/25 08:54:54;;;;;;;2.22;1.05;;;22.20;99.90;;;;;;4995583;28;20029;-74
2022/05/25 08:57:30;;;;;;;0.73;0.63;;;22.30;99.90;;;;;;4990961;28;20029;-75
2022/05/25 09:00:03;;;;;;;1.40;0.90;;;22.10;99.90;;;;;;4994347;28;20029;-75
2022/05/25 09:02:47;;;;;;;1.13;0.75;;;22.00;99.90;;;;;;4992685;28;20188;-75
2022/05/25 09:05:58;;;;;;;0.70;0.70;;;21.90;99.90;;;;;;4990330;28;20029;-76
2022/05/25 09:08:53;;;;;;;1.95;0.80;;;21.90;99.90;;;;;;4989982;28;20041;-75
2022/05/25 09:11:38;;;;;;;1.90;0.73;;;22.40;99.90;;;;;;4990815;28;20017;-75
2022/05/25 09:14:27;;;;;;;1.23;0.70;;;23.30;99.90;;;;;;4996828;28;20072;-76
2022/05/25 09:16:57;;;;;;;0.60;0.60;;;24.60;97.20;;;;;;4996846;28;20029;-76
2022/05/25 09:19:32;;;;;;;0.70;0.70;;;25.30;95.60;;;;;;4992713;28;20708;-77
2022/05/25 09:22:08;;;;;;;0.60;0.60;;;25.60;94.80;;;;;;4996352;28;20037;-75
2022/05/25 09:24:40;;;;;;;2.28;0.95;;;26.00;93.30;;;;;;4995006;28;20037;-75
2022/05/25 09:27:09;;;;;;;3.13;1.00;;;25.90;92.90;;;;;;4994723;28;20863;-75
2022/05/25 09:29:36;;;;;;;2.50;0.98;;;26.00;93.10;;;;;;4994918;28;20033;-76
2022/05/25 09:32:20;;;;;;;3.00;0.80;;;26.20;92.20;;;;;;4994865;28;20053;-76
2022/05/25 09:35:07;;;;;;;2.15;0.68;;;26.30;91.70;;;;;;4992189;28;20038;-76
2022/05/25 09:37:38;;;;;;;2.88;1.00;;;26.30;91.50;;;;;;4993190;28;20033;-76
2022/05/25 09:40:22;;;;;;;1.00;0.90;;;26.70;90.90;;;;;;4995284;28;20045;-76
2022/05/25 09:42:57;;;;;;;1.70;0.77;;;27.10;90.50;;;;;;4995031;28;20031;-75
2022/05/25 09:45:57;;;;;;;2.13;0.90;;;27.50;88.40;;;;;;4990580;28;20402;-78
2022/05/25 09:48:29;;;;;;;1.58;0.85;;;28.30;86.00;;;;;;4987988;28;20024;-77
2022/05/25 09:51:23;;;;;;;1.25;1.00;;;28.10;84.00;;;;;;4994439;28;20014;-77
2022/05/25 09:54:00;;;;;;;1.90;1.10;;;27.80;85.30;;;;;;4991219;28;20022;-75
2022/05/25 09:56:31;;;;;;;1.23;1.10;;;27.50;85.80;;;;;;4991337;28;20050;-76
2022/05/25 09:59:06;;;;;;;1.33;0.98;;;27.00;87.30;;;;;;4994163;28;20018;-75
2022/05/25 10:01:52;;;;;;;1.77;1.35;;;26.50;88.40;;;;;;4989401;28;20029;-75
2022/05/25 10:04:54;;;;;;;3.97;1.20;;;25.80;90.10;;;;;;4990962;28;20021;-74
2022/05/25 10:07:29;;;;;;;0.68;0.65;;;25.70;90.20;;;;;;4989403;28;20043;-76
2022/05/25 10:10:00;;;;;;;1.08;0.70;;;26.70;88.70;;;;;;4994205;28;20022;-76
2022/05/25 10:12:30;;;;;;;1.42;0.88;;;27.80;87.80;;;;;;4987119;28;20030;-76
2022/05/25 10:15:05;;;;;;;1.58;1.20;;;28.50;84.70;;;;;;4993217;28;20029;-77
2022/05/25 10:17:35;;;;;;;4.45;0.90;;;28.90;82.90;;;;;;4989808;28;20632;-78
2022/05/25 10:20:18;;;;;;;0.77;0.77;;;28.30;81.80;;;;;;4993561;28;20730;-78
2022/05/25 10:22:45;;;;;;;0.52;0.52;;;27.60;82.10;;;;;;4993116;28;20216;-77
2022/05/25 10:25:41;;;;;;;0.52;0.50;;;26.60;85.60;;;;;;4992878;28;20437;-75
2022/05/25 10:28:28;;;;;;;1.48;0.50;;;26.20;87.20;;;;;;4996178;28;20029;-75
2022/05/25 10:37:06;;;;;;;0.98;0.80;;;25.20;89.00;;;;;;4992975;28;20092;-73
2022/05/25 10:39:36;;;;;;;1.45;0.80;;;24.70;90.40;;;;;;4989738;28;20029;-73
2022/05/25 10:42:16;;;;;;;0.80;0.60;;;24.90;90.30;;;;;;4992828;28;20036;-74
2022/05/25 10:45:07;;;;;;;1.58;0.50;;;25.70;89.80;;;;;;4987824;28;21019;-73
2022/05/25 10:48:09;;;;;;;1.27;0.52;;;26.50;87.10;;;;;;4988745;28;20026;-74
2022/05/25 10:50:40;;;;;;;0.50;0.47;;;26.70;86.70;;;;;;4988308;28;20033;-73
2022/05/25 10:53:21;;;;;;;3.03;0.80;;;26.60;87.20;;;;;;4993475;28;20030;-73
2022/05/25 10:55:58;;;;;;;2.20;0.60;;;26.10;88.30;;;;;;4986842;28;20014;-73
2022/05/25 10:58:54;;;;;;;0.60;0.45;;;25.90;88.00;;;;;;4987553;28;20089;-73
2022/05/25 11:01:20;;;;;;;1.05;0.63;;;25.60;88.70;;;;;;4989222;28;20037;-72
2022/05/25 11:03:51;;;;;;;;;;;25.30;88.50;;;;;;4988756;28;20014;-73
2022/05/25 11:06:35;;;;;;;0.50;0.47;;;24.90;88.90;;;;;;4990289;28;19924;-72
2022/05/25 11:09:00;;;;;;;0.80;0.55;;;24.50;89.90;;;;;;4991254;28;20038;-73
2022/05/25 11:11:35;;;;;;;1.45;0.45;;;24.00;90.10;;;;;;4987668;28;20022;-73
2022/05/25 11:14:32;;;;;;;1.58;0.52;;;23.70;90.80;;;;;;4992146;28;20026;-73
2022/05/25 11:17:06;;;;;;;1.83;0.50;;;23.30;91.80;;;;;;4992705;28;20026;-73
2022/05/25 11:19:50;;;;;;;5.57;1.10;;;23.10;92.10;;;;;;4989845;28;20030;-74
2022/05/25 11:22:29;;;;;;;2.85;0.70;;;22.80;92.90;;;;;;4993107;28;20096;-74
2022/05/25 11:25:19;;;;;;;1.02;0.55;;;22.50;93.40;;;;;;4996300;28;20101;-75
2022/05/25 11:28:00;;;;;;;0.63;0.57;;;22.20;93.90;;;;;;4993859;28;20044;-74
2022/05/25 11:31:02;;;;;;;0.65;0.65;;;22.00;94.40;;;;;;4993913;28;20079;-74
2022/05/25 11:33:51;;;;;;;1.83;0.50;;;21.60;95.50;;;;;;4980898;28;20985;-75
2022/05/25 11:36:34;;;;;;;0.95;0.60;;;21.50;95.80;;;;;;4997501;28;20363;-73
2022/05/25 11:39:11;;;;;;;0.73;0.73;;;21.30;95.90;;;;;;4998180;28;20033;-75
2022/05/25 11:42:07;;;;;;;0.50;0.50;;;21.20;96.20;;;;;;4996314;28;20037;-79
2022/05/25 11:44:45;;;;;;;0.77;0.77;;;21.00;96.60;;;;;;4992462;28;20061;-80
2022/05/25 11:47:51;;;;;;;0.77;0.77;;;20.80;97.30;;;;;;4997001;28;20030;-79
2022/05/25 11:50:26;;;;;;;0.90;0.77;;;20.70;98.30;;;;;;4997288;28;20614;-76
2022/05/25 11:53:21;;;;;;;0.63;0.63;;;20.50;98.90;;;;;;4996372;28;20057;-75
2022/05/25 11:56:00;;;;;;;3.72;0.80;;;20.50;99.30;;;;;;4992272;28;20797;-76
2022/05/25 11:59:14;;;;;;;2.20;1.27;;;20.40;99.90;;;;;;4992428;28;20022;-76
2022/05/25 12:02:08;;;;;;;0.90;0.90;;;20.20;99.90;;;;;;4993633;28;20046;-76
2022/05/25 12:05:00;;;;;;;0.80;0.80;;;20.10;99.90;;;;;;4991733;28;20017;-76
2022/05/25 12:07:55;;;;;;;1.30;1.20;;;20.00;99.90;;;;;;4993577;28;20030;-76
2022/05/25 12:10:37;;;;;;;1.30;1.20;;;19.80;99.90;;;;;;4994653;28;20426;-76
2022/05/25 12:13:22;;;;;;;2.53;1.42;;;19.70;99.90;;;;;;4998188;28;20018;-76
2022/05/25 12:16:15;;;;;;;1.58;1.40;;;19.60;99.90;;;;;;4992445;28;20045;-76
2022/05/25 12:19:11;;;;;;;2.13;1.20;;;19.50;99.90;;;;;;4992506;28;20052;-77
2022/05/25 12:21:56;;;;;;;1.30;1.20;;;19.50;99.90;;;;;;4992851;28;20104;-76
2022/05/25 12:24:33;;;;;;;1.33;1.20;;;19.40;99.90;;;;;;4994201;28;20028;-76
2022/05/25 12:27:21;;;;;;;;;;;19.30;99.90;;;;;;4998259;28;20033;-76
2022/05/25 12:29:53;;;;;;;1.30;1.20;;;19.30;99.90;;;;;;4991839;28;19937;-76
2022/05/25 12:32:22;;;;;;;1.30;1.20;;;19.30;99.90;;;;;;4995909;28;20555;-76
2022/05/25 12:34:52;;;;;;;2.25;1.40;;;19.20;99.90;;;;;;4991227;28;20025;-76
2022/05/25 12:37:44;;;;;;;1.30;1.20;;;19.20;99.90;;;;;;4995189;28;20049;-76
2022/05/25 12:40:12;;;;;;;1.48;1.20;;;19.00;99.90;;;;;;4998218;28;20026;-76
2022/05/25 12:42:44;;;;;;;2.45;1.20;;;18.90;99.90;;;;;;4992078;28;20026;-76
2022/05/25 12:48:35;;;;;;;1.27;1.20;;;18.50;99.90;;;;;;5002071;28;21525;-76
2022/05/25 12:51:06;;;;;;;1.60;1.17;;;18.30;99.90;;;;;;5000681;28;20109;-76
2022/05/25 12:53:55;;;;;;;2.20;1.30;;;18.30;99.90;;;;;;4993950;28;20041;-76
2022/05/25 12:56:24;;;;;;;1.60;1.10;;;18.30;99.90;;;;;;4995417;28;20046;-76
2022/05/25 12:58:55;;;;;;;1.30;1.20;;;18.30;99.90;;;;;;4991353;28;20030;-76
2022/05/25 13:01:31;;;;;;;1.35;1.20;;;18.20;99.90;;;;;;4995193;28;20024;-76
2022/05/25 13:04:20;;;;;;;2.83;1.33;;;18.20;99.90;;;;;;4991790;28;20018;-76
2022/05/25 13:06:47;;;;;;;1.55;1.42;;;18.10;99.90;;;;;;4990899;28;20037;-76
2022/05/25 13:09:25;;;;;;;;;;;18.10;99.90;;;;;;4996651;28;20116;-77
2022/05/25 13:11:55;;;;;;;1.52;1.42;;;18.10;99.90;;;;;;4989909;28;20267;-76
2022/05/25 13:14:24;;;;;;;4.05;1.80;;;18.10;99.90;;;;;;4996299;28;20013;-76
2022/05/25 13:16:53;;;;;;;1.70;1.58;;;18.20;99.90;;;;;;4988981;28;20791;-76
2022/05/25 13:19:37;;;;;;;2.15;1.80;;;18.30;99.90;;;;;;4994910;28;20164;-76
2022/05/25 13:22:23;;;;;;;3.20;2.03;;;18.30;99.90;;;;;;4990568;28;20112;-77
2022/05/25 13:25:26;;;;;;;2.42;2.10;;;18.30;99.90;;;;;;4990478;28;20316;-76
2022/05/25 13:28:18;;;;;;;2.03;1.92;;;18.40;99.90;;;;;;4991970;28;20026;-76
2022/05/25 13:31:04;;;;;;;2.22;2.03;;;18.30;99.90;;;;;;4990145;28;20010;-76
2022/05/25 13:33:45;;;;;;;2.80;2.13;;;18.20;99.90;;;;;;4995245;28;20026;-77
2022/05/25 13:36:21;;;;;;;2.67;2.47;;;18.20;99.90;;;;;;4995612;28;20106;-76
2022/05/25 13:38:47;;;;;;;2.70;2.50;;;18.20;99.90;;;;;;4992172;28;20026;-76
2022/05/25 13:41:25;;;;;;;3.00;2.80;;;18.30;99.90;;;;;;4995874;28;20033;-75
2022/05/25 13:44:02;;;;;;;3.47;2.88;;;18.40;99.90;;;;;;4989859;28;20026;-76
2022/05/25 13:46:40;;;;;;;3.28;2.97;;;18.40;99.90;;;;;;4994325;28;20101;-76
2022/05/25 13:49:35;;;;;;;3.22;2.92;;;18.30;99.90;;;;;;4992026;28;20041;-76
2022/05/25 13:52:20;;;;;;;2.90;2.70;;;18.40;99.90;;;;;;4983872;28;20096;-76
2022/05/25 13:55:29;;;;;;;3.63;3.25;;;18.40;99.90;;;;;;4990585;28;20033;-77
2022/05/25 13:58:09;;;;;;;3.58;3.20;;;18.40;99.90;;;;;;4994435;28;20032;-76
2022/05/25 14:00:41;;;;;;;4.45;3.13;;;18.50;99.90;;;;;;4994333;28;20022;-76
2022/05/25 14:03:29;;;;;;;4.35;2.95;;;18.60;99.90;;;;;;4993156;28;20659;-76
2022/05/25 14:06:04;;;;;;;3.30;3.00;;;18.60;99.90;;;;;;4989825;28;20025;-76
2022/05/25 14:11:43;;;;;;;3.25;2.95;;;18.70;99.90;;;;;;4995989;28;20537;-76
2022/05/25 14:14:30;;;;;;;3.85;2.90;;;18.70;99.90;;;;;;4995698;28;20032;-76
2022/05/25 14:17:06;;;;;;;3.28;2.65;;;18.70;99.90;;;;;;4990554;28;20022;-76
2022/05/25 14:19:34;;;;;;;3.20;2.90;;;18.80;99.90;;;;;;4994458;28;20026;-76
2022/05/25 14:22:09;;;;;;;3.95;3.20;;;18.70;99.90;;;;;;4991177;28;20025;-76
2022/05/25 14:24:45;;;;;;;4.40;3.00;;;18.60;99.90;;;;;;4994684;28;20022;-76
2022/05/25 14:27:28;;;;;;;3.47;3.17;;;18.60;99.90;;;;;;4995177;28;20018;-76
2022/05/25 14:30:04;;;;;;;3.53;3.00;;;18.60;99.90;;;;;;4989576;28;20025;-76
2022/05/25 14:32:36;;;;;;;4.80;3.10;;;18.50;99.90;;;;;;4994920;28;20018;-76
2022/05/25 14:35:13;;;;;;;3.28;3.00;;;18.40;99.90;;;;;;4987816;28;20893;-76
2022/05/25 14:37:41;;;;;;;3.17;2.92;;;18.30;99.90;;;;;;4994502;28;20030;-76
2022/05/25 14:40:15;;;;;;;3.50;3.20;;;18.30;99.90;;;;;;4991264;28;20026;-76
2022/05/25 14:42:58;;;;;;;3.80;3.40;;;18.30;99.90;;;;;;4995388;28;20034;-75
2022/05/25 14:45:33;;;;;;;3.40;3.10;;;18.30;99.90;;;;;;4991048;28;20690;-76
2022/05/25 14:48:03;;;;;;;3.72;3.25;;;18.30;99.90;;;;;;4989791;28;20441;-76